Time;durP1;ratioP1;P1;durP2;ratioP2;P2;SDS_P1;SDS_P2;PMS_P1;PMS_P2;Temp;Humidity;BMP_temperature;BMP_pressure;BME280_temperature;BME280_humidity;BME280_pressure;Samples;Min_cycle;Max_cycle;Signal;HPM_P1;HPM_P2
2021/06/03 00:02:08;;;;;;;7.05;5.10;;;8.70;88.90;;;;;;5032640;28;20025;-70
2021/06/03 00:04:34;;;;;;;8.93;5.10;;;8.70;88.70;;;;;;5032588;28;20025;-68
2021/06/03 00:07:00;;;;;;;10.57;5.85;;;8.60;88.40;;;;;;5032336;28;20379;-69
2021/06/03 00:09:26;;;;;;;7.28;4.65;;;8.60;88.30;;;;;;5031331;28;20041;-68
2021/06/03 00:11:51;;;;;;;6.00;5.15;;;8.60;88.90;;;;;;5031013;28;20030;-69
2021/06/03 00:14:18;;;;;;;7.35;4.82;;;8.50;89.40;;;;;;5032677;28;20100;-68
2021/06/03 00:16:43;;;;;;;6.57;5.13;;;8.50;89.90;;;;;;5032213;28;20099;-69
2021/06/03 00:19:10;;;;;;;7.65;5.25;;;8.50;89.70;;;;;;5032653;28;20030;-69
2021/06/03 00:21:39;;;;;;;7.97;5.47;;;8.40;90.70;;;;;;5032478;28;20430;-68
2021/06/03 00:24:06;;;;;;;10.30;5.15;;;8.40;91.50;;;;;;5032259;28;20033;-68
2021/06/03 00:26:35;;;;;;;9.45;6.03;;;8.40;91.30;;;;;;5032576;28;20022;-68
2021/06/03 00:29:02;;;;;;;7.40;5.90;;;8.40;91.00;;;;;;5031359;28;20040;-69
2021/06/03 00:31:28;;;;;;;8.07;5.78;;;8.30;91.40;;;;;;5032325;28;20022;-69
2021/06/03 00:33:53;;;;;;;8.52;5.30;;;8.20;91.40;;;;;;5032469;28;20032;-68
2021/06/03 00:36:19;;;;;;;10.77;5.85;;;8.30;91.80;;;;;;5034782;28;20037;-69
2021/06/03 00:38:45;;;;;;;11.80;6.35;;;8.20;91.40;;;;;;5036196;28;20033;-68
2021/06/03 00:41:11;;;;;;;11.27;6.55;;;8.20;92.00;;;;;;5036246;28;20021;-69
2021/06/03 00:43:37;;;;;;;8.80;6.03;;;8.20;92.10;;;;;;5036327;28;20498;-68
2021/06/03 00:46:04;;;;;;;9.73;5.40;;;8.10;92.80;;;;;;5035502;28;20479;-68
2021/06/03 00:48:31;;;;;;;10.80;6.20;;;8.20;92.60;;;;;;5036057;28;20100;-68
2021/06/03 00:50:59;;;;;;;9.70;5.88;;;8.10;93.40;;;;;;5034640;28;20442;-69
2021/06/03 00:53:26;;;;;;;7.97;5.68;;;8.10;93.90;;;;;;5035915;28;20022;-68
2021/06/03 00:55:55;;;;;;;9.30;5.60;;;8.10;93.90;;;;;;5035714;28;20025;-68
2021/06/03 00:58:21;;;;;;;6.57;5.90;;;8.00;93.80;;;;;;5035791;28;20025;-68
2021/06/03 01:00:48;;;;;;;7.13;5.32;;;8.00;93.60;;;;;;5035606;28;20501;-69
2021/06/03 01:03:14;;;;;;;11.77;7.15;;;8.00;93.70;;;;;;5035790;28;20021;-68
2021/06/03 01:05:48;;;;;;;8.73;6.10;;;8.00;93.50;;;;;;5034457;28;20028;-69
2021/06/03 01:08:18;;;;;;;8.43;6.20;;;7.90;94.20;;;;;;5035800;28;20056;-68
2021/06/03 01:11:02;;;;;;;7.13;5.25;;;7.90;93.30;;;;;;5034313;28;20029;-68
2021/06/03 01:13:56;;;;;;;11.02;5.90;;;7.90;92.90;;;;;;5035455;28;20021;-68
2021/06/03 01:16:23;;;;;;;10.32;5.10;;;7.80;93.70;;;;;;5035300;28;20467;-68
2021/06/03 01:18:49;;;;;;;9.68;6.13;;;7.80;94.00;;;;;;5034965;28;20024;-68
2021/06/03 01:21:23;;;;;;;7.55;5.38;;;7.80;94.30;;;;;;5035437;28;20036;-69
2021/06/03 01:24:07;;;;;;;7.70;5.50;;;7.70;93.90;;;;;;5035264;28;20024;-68
2021/06/03 01:26:33;;;;;;;8.95;5.32;;;7.70;93.50;;;;;;5034016;28;20033;-68
2021/06/03 01:29:00;;;;;;;7.85;5.85;;;7.70;93.80;;;;;;5035322;28;20142;-68
2021/06/03 01:31:25;;;;;;;9.45;6.00;;;7.70;95.80;;;;;;5035180;28;20159;-68
2021/06/03 01:33:51;;;;;;;9.93;6.63;;;7.70;96.20;;;;;;5015346;28;20045;-68
2021/06/03 01:36:19;;;;;;;9.25;6.72;;;7.60;96.00;;;;;;5015469;28;20035;-69
2021/06/03 01:38:46;;;;;;;7.68;5.82;;;7.60;96.30;;;;;;5015278;28;20406;-68
2021/06/03 01:41:13;;;;;;;10.38;6.53;;;7.60;96.90;;;;;;5013999;28;20472;-68
2021/06/03 01:43:43;;;;;;;7.97;5.47;;;7.60;97.00;;;;;;5015435;28;20057;-68
2021/06/03 01:46:10;;;;;;;9.63;5.78;;;7.50;97.30;;;;;;5019059;28;20025;-68
2021/06/03 01:48:36;;;;;;;7.07;5.53;;;7.50;97.40;;;;;;5033830;28;20021;-68
2021/06/03 01:51:05;;;;;;;11.27;6.13;;;7.50;97.90;;;;;;5033321;28;20033;-68
2021/06/03 01:53:32;;;;;;;8.88;6.13;;;7.40;97.40;;;;;;5034581;28;20475;-67
2021/06/03 01:56:06;;;;;;;8.95;5.93;;;7.40;97.90;;;;;;5034741;28;20022;-68
2021/06/03 01:58:32;;;;;;;5.93;5.00;;;7.40;98.30;;;;;;5034640;28;20018;-67
2021/06/03 02:00:58;;;;;;;11.77;5.38;;;7.30;98.30;;;;;;5034489;28;20032;-68
2021/06/03 02:03:25;;;;;;;7.32;4.95;;;7.30;99.00;;;;;;5033293;28;20176;-68
2021/06/03 02:05:52;;;;;;;7.63;5.57;;;7.30;99.40;;;;;;5034531;28;20057;-68
2021/06/03 02:08:17;;;;;;;8.13;5.63;;;7.30;99.00;;;;;;5033173;28;20025;-68
2021/06/03 02:10:44;;;;;;;9.13;6.00;;;7.30;99.10;;;;;;5034071;28;20042;-68
2021/06/03 02:13:19;;;;;;;12.40;5.88;;;7.20;99.00;;;;;;5033088;28;20048;-68
2021/06/03 02:16:01;;;;;;;6.90;4.90;;;7.20;98.90;;;;;;5033918;28;20026;-68
2021/06/03 02:18:35;;;;;;;7.53;4.95;;;7.20;98.50;;;;;;5034437;28;20021;-68
2021/06/03 02:21:01;;;;;;;11.57;5.03;;;7.30;98.10;;;;;;5034280;28;20028;-68
2021/06/03 02:23:28;;;;;;;6.20;4.63;;;7.20;97.60;;;;;;5033779;28;20029;-68
2021/06/03 02:25:58;;;;;;;7.53;4.72;;;7.20;98.70;;;;;;5032844;28;20028;-68
2021/06/03 02:28:24;;;;;;;13.00;6.55;;;7.20;98.70;;;;;;5034087;28;20438;-68
2021/06/03 02:30:51;;;;;;;8.13;5.07;;;7.20;99.20;;;;;;5033755;28;20430;-68
2021/06/03 02:33:16;;;;;;;13.00;5.70;;;7.20;99.90;;;;;;5032706;28;20029;-67
2021/06/03 02:35:44;;;;;;;7.95;5.22;;;7.10;99.90;;;;;;5033931;28;20036;-68
2021/06/03 02:38:09;;;;;;;11.73;5.55;;;7.10;99.50;;;;;;5033589;28;20080;-68
2021/06/03 02:40:35;;;;;;;9.88;5.65;;;7.10;99.20;;;;;;5033654;28;20021;-68
2021/06/03 02:43:01;;;;;;;9.20;4.70;;;7.00;98.60;;;;;;5032474;28;20022;-68
2021/06/03 02:45:29;;;;;;;7.43;4.97;;;7.00;99.50;;;;;;5033587;28;20029;-69
2021/06/03 02:47:56;;;;;;;8.75;4.72;;;6.90;99.40;;;;;;5032384;28;20021;-68
2021/06/03 02:50:24;;;;;;;10.32;5.63;;;7.00;99.50;;;;;;5033674;28;20376;-68
2021/06/03 02:52:50;;;;;;;10.45;5.30;;;7.00;99.80;;;;;;5033355;28;20040;-68
2021/06/03 02:55:19;;;;;;;7.35;4.60;;;7.00;99.60;;;;;;5033499;28;20029;-68
2021/06/03 02:57:45;;;;;;;9.02;4.97;;;7.00;99.90;;;;;;5033116;28;20490;-68
2021/06/03 03:00:15;;;;;;;5.97;4.57;;;7.00;99.90;;;;;;5033408;28;20558;-69
2021/06/03 03:02:41;;;;;;;7.07;5.45;;;7.00;99.30;;;;;;5033250;28;20029;-68
2021/06/03 03:05:07;;;;;;;20.15;6.53;;;7.00;99.00;;;;;;5033454;28;20152;-69
2021/06/03 03:07:34;;;;;;;13.82;5.50;;;7.00;98.90;;;;;;5031857;28;20083;-68
2021/06/03 03:10:01;;;;;;;7.15;6.45;;;7.10;99.30;;;;;;5033237;28;20037;-69
2021/06/03 03:12:26;;;;;;;10.38;5.68;;;7.20;99.60;;;;;;5033093;28;20033;-68
2021/06/03 03:14:52;;;;;;;10.57;6.05;;;7.20;99.90;;;;;;5033239;28;20029;-69
2021/06/03 03:17:18;;;;;;;13.23;5.63;;;7.20;99.90;;;;;;5033071;28;20029;-69
2021/06/03 03:19:43;;;;;;;7.05;5.30;;;7.30;99.90;;;;;;5031835;28;20061;-68
2021/06/03 03:22:09;;;;;;;13.07;5.90;;;7.40;99.90;;;;;;5033106;28;20036;-69
2021/06/03 03:24:35;;;;;;;6.57;5.50;;;7.40;99.90;;;;;;5031805;28;20025;-68
2021/06/03 03:27:00;;;;;;;10.75;5.40;;;7.50;99.90;;;;;;5033140;28;20390;-69
2021/06/03 03:29:26;;;;;;;8.45;5.88;;;7.60;99.90;;;;;;5032985;28;20041;-68
2021/06/03 03:31:52;;;;;;;6.55;4.50;;;7.70;99.90;;;;;;5032841;28;20053;-70
2021/06/03 03:34:17;;;;;;;6.97;4.88;;;7.90;99.60;;;;;;5033037;28;20417;-67
2021/06/03 03:36:45;;;;;;;10.38;5.38;;;8.00;98.10;;;;;;5032782;28;20021;-68
2021/06/03 03:39:11;;;;;;;8.73;5.68;;;8.20;96.10;;;;;;5032673;28;20506;-68
2021/06/03 03:41:37;;;;;;;10.80;5.68;;;8.40;94.70;;;;;;5032733;28;20022;-68
2021/06/03 03:44:03;;;;;;;12.35;5.30;;;8.50;92.80;;;;;;5032537;28;20140;-68
2021/06/03 03:46:29;;;;;;;7.03;5.20;;;8.80;95.30;;;;;;5032766;28;20032;-68
2021/06/03 03:48:55;;;;;;;10.45;6.10;;;9.10;92.60;;;;;;5032728;28;20029;-68
2021/06/03 03:51:21;;;;;;;9.50;5.13;;;9.30;90.20;;;;;;5031445;28;20033;-69
2021/06/03 03:53:47;;;;;;;8.63;6.75;;;9.50;88.00;;;;;;5032726;28;20123;-68
2021/06/03 03:56:12;;;;;;;7.45;5.20;;;9.70;87.90;;;;;;5032789;28;20387;-68
2021/06/03 03:58:41;;;;;;;16.20;6.95;;;10.10;86.80;;;;;;5032630;28;20025;-68
2021/06/03 04:01:06;;;;;;;11.60;5.25;;;10.40;84.40;;;;;;5032718;28;20480;-68
2021/06/03 04:03:32;;;;;;;7.57;5.40;;;10.50;82.20;;;;;;5032380;28;20044;-68
2021/06/03 04:05:58;;;;;;;9.73;4.72;;;10.70;81.60;;;;;;5031395;28;20025;-68
2021/06/03 04:08:24;;;;;;;11.48;5.00;;;10.90;80.70;;;;;;5031116;28;20037;-67
2021/06/03 04:10:50;;;;;;;9.38;4.57;;;10.90;80.70;;;;;;5034010;28;20038;-68
2021/06/03 04:13:15;;;;;;;8.27;4.93;;;11.10;81.00;;;;;;5036773;28;20029;-68
2021/06/03 04:15:41;;;;;;;6.88;4.75;;;11.10;81.40;;;;;;5036273;28;20383;-69
2021/06/03 04:18:07;;;;;;;11.15;5.10;;;11.20;81.60;;;;;;5036559;28;20022;-68
2021/06/03 04:20:36;;;;;;;5.93;4.63;;;11.30;80.90;;;;;;5036388;28;20048;-69
2021/06/03 04:23:02;;;;;;;7.70;4.68;;;11.30;80.20;;;;;;5036383;28;20368;-68
2021/06/03 04:25:28;;;;;;;8.18;4.88;;;11.30;80.80;;;;;;5036455;28;20029;-69
2021/06/03 04:27:54;;;;;;;6.32;4.70;;;11.30;81.90;;;;;;5035044;28;20028;-68
2021/06/03 04:30:23;;;;;;;6.97;4.13;;;11.40;81.40;;;;;;5035026;28;20399;-68
2021/06/03 04:32:50;;;;;;;6.00;4.43;;;11.40;82.00;;;;;;5035973;28;20024;-68
2021/06/03 04:35:18;;;;;;;7.57;4.55;;;11.50;83.00;;;;;;5035010;28;20018;-68
2021/06/03 04:37:44;;;;;;;7.70;4.43;;;11.60;82.20;;;;;;5035890;28;20025;-68
2021/06/03 04:40:12;;;;;;;5.43;4.05;;;11.80;81.80;;;;;;5036477;28;20087;-66
2021/06/03 04:42:38;;;;;;;7.03;3.60;;;11.90;81.20;;;;;;5034640;28;20060;-65
2021/06/03 04:45:05;;;;;;;5.30;3.63;;;12.10;79.80;;;;;;5036117;28;20026;-66
2021/06/03 04:47:32;;;;;;;3.20;2.90;;;12.30;76.10;;;;;;5035827;28;20028;-66
2021/06/03 04:49:57;;;;;;;4.50;3.58;;;12.50;71.10;;;;;;5034459;28;20034;-66
2021/06/03 04:52:27;;;;;;;3.72;2.72;;;12.80;68.70;;;;;;5035903;28;20029;-65
2021/06/03 04:54:54;;;;;;;5.63;2.67;;;13.00;66.10;;;;;;5035599;28;20387;-65
2021/06/03 04:57:20;;;;;;;4.07;2.60;;;13.20;66.70;;;;;;5035853;28;20491;-66
2021/06/03 04:59:45;;;;;;;4.13;3.00;;;13.50;64.40;;;;;;5035333;28;20095;-67
2021/06/03 05:02:11;;;;;;;4.47;2.67;;;13.60;62.80;;;;;;5035699;28;20030;-66
2021/06/03 05:04:36;;;;;;;5.05;3.00;;;13.70;62.40;;;;;;5035679;28;20233;-65
2021/06/03 05:07:02;;;;;;;3.35;2.17;;;13.90;62.20;;;;;;5034380;28;20022;-66
2021/06/03 05:09:28;;;;;;;3.20;2.38;;;14.00;61.70;;;;;;5035060;28;20116;-66
2021/06/03 05:11:53;;;;;;;5.13;2.72;;;14.10;60.10;;;;;;5035541;28;20093;-67
2021/06/03 05:14:19;;;;;;;2.80;2.60;;;14.20;59.50;;;;;;5035564;28;20479;-65
2021/06/03 05:16:45;;;;;;;3.28;2.65;;;14.30;60.50;;;;;;5035256;28;20100;-67
2021/06/03 05:19:10;;;;;;;2.65;2.40;;;14.40;59.70;;;;;;5035464;28;20179;-66
2021/06/03 05:21:36;;;;;;;5.45;2.55;;;14.60;59.40;;;;;;5034946;28;20021;-67
2021/06/03 05:24:02;;;;;;;3.83;2.40;;;14.70;58.80;;;;;;5035289;28;20057;-66
2021/06/03 05:26:27;;;;;;;3.88;2.40;;;14.80;57.90;;;;;;5035382;28;20093;-67
2021/06/03 05:28:53;;;;;;;4.35;2.60;;;14.90;57.40;;;;;;5033885;28;20497;-66
2021/06/03 05:31:19;;;;;;;5.32;2.88;;;15.00;57.20;;;;;;5035303;28;20037;-67
2021/06/03 05:33:44;;;;;;;4.32;2.47;;;15.10;57.00;;;;;;5035116;28;20057;-66
2021/06/03 05:36:10;;;;;;;4.97;2.20;;;15.20;56.60;;;;;;5034915;28;20036;-67
2021/06/03 05:38:36;;;;;;;3.80;2.42;;;15.20;55.40;;;;;;5034758;28;20426;-66
2021/06/03 05:41:01;;;;;;;3.25;2.28;;;15.30;54.50;;;;;;5035050;28;20018;-67
2021/06/03 05:43:27;;;;;;;3.92;2.78;;;15.30;53.40;;;;;;5034924;28;20033;-66
2021/06/03 05:45:53;;;;;;;4.47;2.97;;;15.40;53.90;;;;;;5034995;28;20026;-67
2021/06/03 05:48:18;;;;;;;3.80;3.35;;;15.50;54.60;;;;;;5033680;28;20026;-66
2021/06/03 05:50:44;;;;;;;5.07;2.70;;;15.60;54.20;;;;;;5034743;28;20037;-67
2021/06/03 05:53:09;;;;;;;3.95;2.75;;;15.70;54.10;;;;;;5034677;28;20483;-66
2021/06/03 05:55:35;;;;;;;3.47;2.80;;;15.80;53.70;;;;;;5034611;28;20026;-67
2021/06/03 05:58:01;;;;;;;4.70;3.10;;;15.80;53.50;;;;;;5034719;28;20025;-66
2021/06/03 06:00:33;;;;;;;6.53;3.08;;;15.80;53.90;;;;;;5034767;28;20025;-67
2021/06/03 06:03:04;;;;;;;4.40;3.05;;;15.90;53.40;;;;;;5034706;28;20025;-66
2021/06/03 06:08:15;;;;;;;7.47;2.92;;;16.00;52.60;;;;;;5024998;28;20271;-66
2021/06/03 06:10:43;;;;;;;6.10;3.20;;;16.10;53.10;;;;;;5034447;28;20405;-66
2021/06/03 06:13:09;;;;;;;3.63;2.63;;;16.30;53.40;;;;;;5034374;28;20022;-67
2021/06/03 06:15:36;;;;;;;5.68;3.42;;;16.40;52.30;;;;;;5032961;28;20016;-67
2021/06/03 06:18:02;;;;;;;4.60;3.00;;;16.50;51.70;;;;;;5034287;28;20029;-67
2021/06/03 06:20:28;;;;;;;4.40;3.60;;;16.60;52.10;;;;;;5033649;28;20022;-67
2021/06/03 06:22:58;;;;;;;5.78;3.25;;;16.60;51.10;;;;;;5033068;28;20039;-66
2021/06/03 06:25:24;;;;;;;4.07;2.78;;;16.70;51.20;;;;;;5032812;28;20105;-67
2021/06/03 06:27:50;;;;;;;6.15;3.78;;;16.80;51.50;;;;;;5033951;28;20042;-67
2021/06/03 06:30:16;;;;;;;5.50;3.22;;;16.90;51.30;;;;;;5034016;28;20406;-67
2021/06/03 06:32:41;;;;;;;3.20;2.90;;;17.00;50.60;;;;;;5033449;28;20033;-67
2021/06/03 06:35:09;;;;;;;4.25;2.63;;;17.00;50.50;;;;;;5033632;28;20034;-68
2021/06/03 06:37:34;;;;;;;6.03;3.13;;;17.10;50.50;;;;;;5033542;28;20045;-67
2021/06/03 06:40:02;;;;;;;4.03;3.00;;;17.20;49.50;;;;;;5033961;28;20060;-67
2021/06/03 06:42:30;;;;;;;6.43;3.38;;;17.30;50.20;;;;;;5033578;28;21267;-67
2021/06/03 06:44:56;;;;;;;5.20;3.25;;;17.50;50.30;;;;;;5033346;28;20051;-67
2021/06/03 06:47:21;;;;;;;4.53;3.00;;;17.60;50.40;;;;;;5033407;28;20051;-67
2021/06/03 06:49:48;;;;;;;3.15;2.70;;;17.70;49.80;;;;;;5033646;28;20112;-68
2021/06/03 06:52:14;;;;;;;5.20;2.70;;;17.80;50.60;;;;;;5033841;28;20414;-68
2021/06/03 06:54:40;;;;;;;2.88;2.58;;;18.00;49.20;;;;;;5033396;28;20037;-68
2021/06/03 06:57:06;;;;;;;4.45;2.75;;;18.20;48.90;;;;;;5033329;28;20021;-68
2021/06/03 06:59:32;;;;;;;2.58;2.20;;;18.20;47.50;;;;;;5033068;28;20105;-67
2021/06/03 07:01:57;;;;;;;3.45;2.78;;;18.50;48.20;;;;;;5033093;28;20021;-68
2021/06/03 07:04:23;;;;;;;4.85;2.40;;;18.60;47.80;;;;;;5032954;28;20029;-68
2021/06/03 07:06:48;;;;;;;3.10;2.75;;;18.60;48.40;;;;;;5031382;28;20105;-68
2021/06/03 07:09:14;;;;;;;4.55;2.38;;;18.70;46.20;;;;;;5032889;28;20437;-67
2021/06/03 07:11:40;;;;;;;4.28;2.80;;;18.70;45.00;;;;;;5031567;28;20044;-68
2021/06/03 07:14:05;;;;;;;3.92;2.80;;;18.70;44.50;;;;;;5032541;28;20051;-67
2021/06/03 07:16:31;;;;;;;5.20;2.35;;;18.70;44.10;;;;;;5031476;28;20041;-68
2021/06/03 07:18:57;;;;;;;5.28;2.55;;;18.80;43.50;;;;;;5030631;28;20033;-68
2021/06/03 07:21:22;;;;;;;3.58;2.40;;;18.90;44.20;;;;;;5033068;28;20033;-69
2021/06/03 07:23:48;;;;;;;3.30;1.92;;;18.90;43.30;;;;;;5033032;28;20360;-67
2021/06/03 07:26:14;;;;;;;3.30;2.40;;;18.90;43.80;;;;;;5032433;28;20029;-68
2021/06/03 07:28:40;;;;;;;6.80;2.20;;;18.90;43.60;;;;;;5032806;28;20025;-69
2021/06/03 07:31:06;;;;;;;2.75;1.98;;;19.10;43.50;;;;;;5032977;28;20048;-68
2021/06/03 07:33:32;;;;;;;3.80;2.25;;;19.20;42.00;;;;;;5027953;28;20028;-67
2021/06/03 07:35:57;;;;;;;3.67;2.40;;;19.20;41.80;;;;;;5032583;28;20131;-69
2021/06/03 07:38:23;;;;;;;4.80;2.10;;;19.10;42.30;;;;;;5032439;28;20040;-67
2021/06/03 07:40:50;;;;;;;3.15;2.28;;;19.20;42.70;;;;;;5030870;28;20395;-68
2021/06/03 07:43:15;;;;;;;4.35;2.35;;;19.40;43.90;;;;;;5032865;28;20095;-68
2021/06/03 07:45:42;;;;;;;2.65;2.35;;;19.60;44.00;;;;;;5032553;28;20022;-69
2021/06/03 07:48:08;;;;;;;2.67;2.30;;;19.90;43.10;;;;;;5032347;28;20075;-68
2021/06/03 07:50:36;;;;;;;2.63;2.00;;;20.10;41.30;;;;;;5032471;28;20030;-69
2021/06/03 07:53:03;;;;;;;5.35;2.00;;;20.10;41.30;;;;;;5032546;28;20041;-69
2021/06/03 07:55:29;;;;;;;3.47;2.17;;;19.80;40.10;;;;;;5030992;28;20113;-68
2021/06/03 07:57:58;;;;;;;5.55;2.33;;;19.80;40.50;;;;;;5031114;28;20108;-68
2021/06/03 08:00:25;;;;;;;2.72;1.77;;;19.90;40.30;;;;;;5030724;28;20100;-68
2021/06/03 08:02:51;;;;;;;2.58;2.10;;;20.00;40.00;;;;;;5029565;28;20045;-68
2021/06/03 08:05:19;;;;;;;2.08;1.58;;;20.10;39.50;;;;;;5028509;28;20410;-69
2021/06/03 08:07:46;;;;;;;2.47;2.10;;;20.00;39.30;;;;;;5021146;28;20116;-67
2021/06/03 08:10:16;;;;;;;2.13;1.95;;;20.00;39.10;;;;;;5025976;28;20033;-68
2021/06/03 08:12:42;;;;;;;2.10;1.67;;;19.90;39.10;;;;;;5025779;28;20128;-68
2021/06/03 08:15:10;;;;;;;4.45;1.88;;;20.10;39.80;;;;;;5027365;28;20029;-68
2021/06/03 08:17:36;;;;;;;1.85;1.60;;;19.90;39.20;;;;;;5028528;28;20076;-68
2021/06/03 08:20:05;;;;;;;3.30;1.88;;;19.90;39.90;;;;;;5026107;28;20201;-68
2021/06/03 08:22:31;;;;;;;2.90;1.65;;;20.00;38.30;;;;;;5026613;28;20041;-68
2021/06/03 08:24:56;;;;;;;2.92;1.65;;;20.30;39.40;;;;;;5027964;28;20088;-67
2021/06/03 08:27:22;;;;;;;1.90;1.70;;;20.50;39.60;;;;;;5023663;28;20030;-68
2021/06/03 08:29:47;;;;;;;6.43;3.03;;;20.70;39.70;;;;;;5020104;28;20045;-69
2021/06/03 08:32:13;;;;;;;2.53;1.83;;;20.60;38.50;;;;;;5025611;28;20030;-68
2021/06/03 08:34:39;;;;;;;2.20;2.00;;;20.50;37.90;;;;;;5024409;28;20064;-68
2021/06/03 08:37:05;;;;;;;4.85;1.70;;;20.50;37.80;;;;;;5024587;28;20057;-68
2021/06/03 08:39:30;;;;;;;1.90;1.75;;;20.30;37.60;;;;;;5028124;28;20475;-68
2021/06/03 08:41:58;;;;;;;3.47;1.85;;;20.50;37.00;;;;;;5024750;28;20065;-68
2021/06/03 08:44:25;;;;;;;2.85;1.98;;;20.50;37.10;;;;;;5028800;28;20025;-68
2021/06/03 08:46:51;;;;;;;1.90;1.80;;;20.50;37.70;;;;;;5026302;28;20029;-68
2021/06/03 08:49:17;;;;;;;2.92;1.67;;;20.70;37.90;;;;;;5028174;28;20021;-68
2021/06/03 08:51:42;;;;;;;2.47;1.90;;;20.90;37.80;;;;;;5025860;28;20183;-68
2021/06/03 08:54:08;;;;;;;3.03;1.52;;;20.80;36.40;;;;;;5028990;28;20026;-69
2021/06/03 08:56:36;;;;;;;6.18;1.70;;;20.80;36.30;;;;;;5028897;28;20484;-68
2021/06/03 08:59:02;;;;;;;4.40;1.77;;;20.80;35.50;;;;;;5031741;28;20087;-68
2021/06/03 09:01:30;;;;;;;3.97;1.70;;;20.80;35.70;;;;;;5030897;28;20044;-68
2021/06/03 09:03:56;;;;;;;4.90;1.83;;;20.80;35.60;;;;;;5032195;28;20463;-69
2021/06/03 09:06:26;;;;;;;2.65;2.00;;;20.90;36.50;;;;;;5025449;28;20761;-69
2021/06/03 09:08:58;;;;;;;2.40;2.13;;;20.90;36.30;;;;;;5028889;28;20029;-68
2021/06/03 09:11:26;;;;;;;3.97;1.63;;;20.80;35.80;;;;;;5029467;28;20041;-68
2021/06/03 09:13:56;;;;;;;3.03;1.88;;;20.90;35.90;;;;;;5030039;28;20260;-68
2021/06/03 09:16:26;;;;;;;2.95;1.92;;;20.80;34.60;;;;;;5031545;28;20515;-68
2021/06/03 09:19:04;;;;;;;6.80;1.67;;;20.40;34.50;;;;;;5030902;28;20021;-68
2021/06/03 09:21:51;;;;;;;3.72;2.00;;;20.20;34.70;;;;;;5030389;28;20033;-68
2021/06/03 09:24:18;;;;;;;1.80;1.60;;;20.30;35.30;;;;;;5033972;28;20506;-68
2021/06/03 09:26:50;;;;;;;2.65;1.70;;;20.60;36.40;;;;;;5033062;28;20034;-68
2021/06/03 09:29:24;;;;;;;2.72;2.03;;;20.80;35.60;;;;;;5032358;28;20025;-68
2021/06/03 09:31:51;;;;;;;3.72;1.98;;;20.90;35.40;;;;;;5028247;28;20045;-68
2021/06/03 09:34:19;;;;;;;3.63;2.20;;;20.90;36.90;;;;;;5032351;28;20065;-68
2021/06/03 09:36:52;;;;;;;2.10;1.90;;;21.10;36.10;;;;;;5028914;28;20037;-69
2021/06/03 09:39:51;;;;;;;4.43;1.95;;;21.20;35.90;;;;;;5029910;28;20032;-68
2021/06/03 09:42:20;;;;;;;3.35;2.00;;;21.40;35.60;;;;;;5026524;28;20025;-69
2021/06/03 09:44:56;;;;;;;2.75;2.20;;;21.30;34.20;;;;;;5030376;28;21074;-68
2021/06/03 09:47:38;;;;;;;2.88;2.00;;;21.40;34.10;;;;;;5028980;28;20049;-68
2021/06/03 09:50:06;;;;;;;1.75;1.65;;;21.10;35.40;;;;;;5029809;28;20044;-69
2021/06/03 09:52:33;;;;;;;2.20;2.00;;;21.40;36.80;;;;;;5029211;28;20068;-69
2021/06/03 09:55:02;;;;;;;2.55;1.95;;;21.50;37.80;;;;;;5030545;28;20463;-69
2021/06/03 09:57:32;;;;;;;2.25;2.13;;;21.50;37.10;;;;;;5031166;28;20038;-69
2021/06/03 10:00:08;;;;;;;2.53;2.22;;;21.60;35.70;;;;;;5028504;28;20103;-69
2021/06/03 10:02:36;;;;;;;3.53;1.90;;;21.70;36.80;;;;;;5031521;28;20053;-69
2021/06/03 10:05:10;;;;;;;3.85;1.95;;;21.80;36.30;;;;;;5029686;28;20565;-69
2021/06/03 10:07:36;;;;;;;5.78;2.53;;;21.90;34.90;;;;;;5023291;28;20065;-68
2021/06/03 10:10:09;;;;;;;2.42;2.03;;;22.20;34.50;;;;;;5026906;28;20061;-68
2021/06/03 10:12:55;;;;;;;4.30;2.67;;;22.10;35.30;;;;;;5026737;28;20057;-68
2021/06/03 10:15:20;;;;;;;4.13;2.40;;;21.80;36.80;;;;;;5028118;28;20083;-68
2021/06/03 10:17:58;;;;;;;3.28;2.80;;;21.60;37.10;;;;;;5028745;28;20102;-68
2021/06/03 10:20:33;;;;;;;4.20;2.45;;;21.60;37.50;;;;;;5028342;28;20072;-68
2021/06/03 10:23:00;;;;;;;4.82;2.63;;;21.50;36.90;;;;;;5026011;28;20072;-67
2021/06/03 10:25:27;;;;;;;3.95;2.50;;;21.80;36.60;;;;;;5030118;28;20442;-68
2021/06/03 10:27:59;;;;;;;2.40;2.20;;;21.90;37.90;;;;;;5026965;28;20034;-68
2021/06/03 10:30:34;;;;;;;3.95;2.42;;;21.70;36.20;;;;;;5027442;28;20045;-68
2021/06/03 10:33:04;;;;;;;3.65;2.65;;;21.70;35.90;;;;;;5027147;28;20386;-68
2021/06/03 10:35:32;;;;;;;2.45;2.25;;;21.80;36.70;;;;;;5026672;28;20013;-68
2021/06/03 10:37:59;;;;;;;4.90;2.95;;;22.10;35.60;;;;;;5027767;28;20148;-68
2021/06/03 10:40:34;;;;;;;5.57;2.03;;;22.60;34.60;;;;;;5028765;28;20026;-68
2021/06/03 10:43:01;;;;;;;2.75;2.47;;;22.70;36.90;;;;;;5026815;28;20454;-68
2021/06/03 10:45:29;;;;;;;4.10;2.20;;;22.40;36.50;;;;;;5029470;28;20026;-69
2021/06/03 10:47:56;;;;;;;3.22;2.55;;;22.50;36.00;;;;;;5028401;28;20041;-69
2021/06/03 10:50:34;;;;;;;4.57;2.80;;;22.50;37.30;;;;;;5028961;28;20041;-69
2021/06/03 10:53:08;;;;;;;6.78;2.90;;;22.70;36.70;;;;;;5027470;28;20478;-69
2021/06/03 10:55:44;;;;;;;3.20;2.08;;;22.90;37.40;;;;;;5028523;28;20014;-69
2021/06/03 10:58:13;;;;;;;4.82;2.40;;;22.80;36.70;;;;;;5030929;28;20092;-69
2021/06/03 11:00:58;;;;;;;5.55;2.83;;;23.10;36.70;;;;;;5030189;28;20030;-68
2021/06/03 11:03:36;;;;;;;4.20;2.63;;;22.70;37.00;;;;;;5030976;28;20048;-69
2021/06/03 11:06:05;;;;;;;3.70;2.67;;;22.20;38.20;;;;;;5030453;28;20021;-69
2021/06/03 11:08:44;;;;;;;7.43;2.83;;;21.90;37.40;;;;;;5031092;28;20014;-68
2021/06/03 11:11:13;;;;;;;3.15;2.85;;;21.80;38.40;;;;;;5030642;28;20088;-69
2021/06/03 11:14:17;;;;;;;6.07;2.25;;;21.60;38.80;;;;;;5030248;28;20395;-69
2021/06/03 11:16:44;;;;;;;6.78;2.72;;;21.60;39.10;;;;;;5029404;28;20025;-68
2021/06/03 11:19:13;;;;;;;2.65;2.38;;;21.70;39.40;;;;;;5031011;28;20071;-68
2021/06/03 11:21:43;;;;;;;6.57;3.67;;;21.70;38.10;;;;;;5030128;28;20022;-68
2021/06/03 11:24:30;;;;;;;4.25;2.83;;;21.60;38.50;;;;;;5030542;28;20476;-68
2021/06/03 11:26:59;;;;;;;3.00;2.60;;;21.40;37.60;;;;;;5030848;28;20111;-68
2021/06/03 11:29:36;;;;;;;5.00;2.40;;;21.50;38.50;;;;;;5030844;28;20022;-68
2021/06/03 11:32:05;;;;;;;5.47;2.70;;;21.70;38.60;;;;;;5028366;28;20645;-69
2021/06/03 11:34:47;;;;;;;3.03;2.22;;;21.80;38.10;;;;;;5030937;28;20072;-68
2021/06/03 11:37:18;;;;;;;3.33;2.33;;;21.90;37.60;;;;;;5030222;28;20487;-69
2021/06/03 11:39:48;;;;;;;2.47;2.10;;;22.10;38.60;;;;;;5029373;28;20029;-69
2021/06/03 11:42:28;;;;;;;2.70;2.50;;;22.30;37.50;;;;;;5029933;28;20092;-70
2021/06/03 11:45:03;;;;;;;3.80;3.30;;;22.60;35.80;;;;;;5028117;28;20064;-69
2021/06/03 11:47:52;;;;;;;4.60;2.50;;;23.00;35.90;;;;;;5030926;28;20068;-68
2021/06/03 11:50:18;;;;;;;3.95;2.40;;;23.20;34.50;;;;;;5031345;28;20041;-69
2021/06/03 11:52:53;;;;;;;2.60;2.40;;;22.90;34.40;;;;;;5031174;28;20382;-69
2021/06/03 11:55:33;;;;;;;6.10;2.72;;;22.80;34.20;;;;;;5032442;28;20021;-70
2021/06/03 11:58:40;;;;;;;2.53;2.25;;;23.10;34.80;;;;;;5030078;28;20026;-70
2021/06/03 12:01:30;;;;;;;7.25;2.55;;;23.10;36.10;;;;;;5027045;28;20111;-70
2021/06/03 12:04:16;;;;;;;2.78;2.50;;;22.90;35.20;;;;;;5022688;28;20026;-70
2021/06/03 12:06:45;;;;;;;8.23;2.63;;;22.80;34.60;;;;;;5029612;28;20030;-70
2021/06/03 12:09:21;;;;;;;2.75;2.15;;;22.90;34.70;;;;;;5031888;28;20034;-70
2021/06/03 12:11:50;;;;;;;3.30;2.20;;;23.00;34.50;;;;;;5030218;28;20033;-70
2021/06/03 12:14:28;;;;;;;4.80;2.13;;;23.00;34.70;;;;;;5031612;28;20682;-70
2021/06/03 12:17:03;;;;;;;3.17;2.50;;;23.10;35.30;;;;;;5031812;28;20029;-70
2021/06/03 12:19:35;;;;;;;3.42;2.05;;;23.10;35.10;;;;;;5030566;28;20101;-70
2021/06/03 12:22:09;;;;;;;3.00;2.07;;;23.20;33.40;;;;;;5030786;28;20481;-71
2021/06/03 12:24:35;;;;;;;4.30;2.50;;;23.00;33.00;;;;;;5031363;28;20422;-70
2021/06/03 12:27:01;;;;;;;3.25;1.80;;;22.80;33.00;;;;;;5030974;28;20458;-73
2021/06/03 12:29:33;;;;;;;2.35;2.15;;;22.70;34.20;;;;;;5025436;28;20029;-71
2021/06/03 12:32:00;;;;;;;3.08;2.13;;;22.80;35.50;;;;;;5030073;28;19913;-70
2021/06/03 12:34:28;;;;;;;3.92;2.22;;;22.80;35.10;;;;;;5032056;28;20424;-70
2021/06/03 12:36:54;;;;;;;2.20;2.00;;;23.00;35.20;;;;;;5030780;28;20103;-68
2021/06/03 12:39:20;;;;;;;2.88;1.90;;;23.10;34.00;;;;;;5033251;28;20029;-68
2021/06/03 12:41:49;;;;;;;2.58;1.83;;;23.50;34.60;;;;;;5026246;28;20045;-68
2021/06/03 12:44:18;;;;;;;3.17;2.35;;;23.70;34.10;;;;;;5032450;28;20387;-68
2021/06/03 12:46:45;;;;;;;2.40;2.15;;;23.80;35.00;;;;;;5031865;28;20108;-68
2021/06/03 12:49:28;;;;;;;4.60;2.33;;;23.70;35.70;;;;;;5032608;28;20237;-68
2021/06/03 12:51:58;;;;;;;5.05;2.28;;;23.10;36.00;;;;;;5031418;28;20507;-69
2021/06/03 12:54:34;;;;;;;4.10;2.33;;;22.80;36.10;;;;;;5032533;28;20558;-68
2021/06/03 12:57:02;;;;;;;5.45;2.50;;;22.50;35.50;;;;;;5029801;28;20116;-68
2021/06/03 12:59:33;;;;;;;5.85;2.00;;;22.30;36.40;;;;;;5033953;28;20021;-69